sensor_id;sensor_type;location;lat;lon;timestamp;P1;durP1;ratioP1;P2;durP2;ratioP2
6135;SDS011;24008;42.664;23.372;2023-05-07T00:01:15;12.40;;;9.53;;
6135;SDS011;24008;42.664;23.372;2023-05-07T00:03:41;18.27;;;11.23;;
6135;SDS011;24008;42.664;23.372;2023-05-07T00:06:08;16.07;;;10.20;;
6135;SDS011;24008;42.664;23.372;2023-05-07T00:08:37;16.80;;;11.93;;
6135;SDS011;24008;42.664;23.372;2023-05-07T00:11:04;15.87;;;12.27;;
6135;SDS011;24008;42.664;23.372;2023-05-07T00:13:31;16.53;;;12.87;;
6135;SDS011;24008;42.664;23.372;2023-05-07T00:16:01;19.43;;;12.53;;
6135;SDS011;24008;42.664;23.372;2023-05-07T00:18:28;18.07;;;12.23;;
6135;SDS011;24008;42.664;23.372;2023-05-07T00:20:55;18.07;;;13.13;;
6135;SDS011;24008;42.664;23.372;2023-05-07T00:23:22;14.97;;;12.13;;
6135;SDS011;24008;42.664;23.372;2023-05-07T00:25:49;17.40;;;12.87;;
6135;SDS011;24008;42.664;23.372;2023-05-07T00:28:15;20.00;;;12.87;;
6135;SDS011;24008;42.664;23.372;2023-05-07T00:30:42;19.13;;;13.13;;
6135;SDS011;24008;42.664;23.372;2023-05-07T00:33:10;21.43;;;13.90;;
6135;SDS011;24008;42.664;23.372;2023-05-07T00:35:37;17.60;;;13.57;;
6135;SDS011;24008;42.664;23.372;2023-05-07T00:38:04;19.53;;;13.73;;
6135;SDS011;24008;42.664;23.372;2023-05-07T00:40:30;17.37;;;13.07;;
6135;SDS011;24008;42.664;23.372;2023-05-07T00:42:57;17.43;;;13.63;;
6135;SDS011;24008;42.664;23.372;2023-05-07T00:45:25;20.17;;;13.20;;
6135;SDS011;24008;42.664;23.372;2023-05-07T00:47:53;16.57;;;12.20;;
6135;SDS011;24008;42.664;23.372;2023-05-07T00:50:22;18.57;;;12.70;;
6135;SDS011;24008;42.664;23.372;2023-05-07T00:52:49;18.17;;;13.13;;
6135;SDS011;24008;42.664;23.372;2023-05-07T00:55:16;22.73;;;13.10;;
6135;SDS011;24008;42.664;23.372;2023-05-07T00:57:43;19.30;;;13.37;;
6135;SDS011;24008;42.664;23.372;2023-05-07T01:00:11;17.73;;;11.80;;
6135;SDS011;24008;42.664;23.372;2023-05-07T01:02:39;14.47;;;11.43;;
6135;SDS011;24008;42.664;23.372;2023-05-07T01:05:07;13.40;;;10.37;;
6135;SDS011;24008;42.664;23.372;2023-05-07T01:07:38;9.90;;;8.07;;
6135;SDS011;24008;42.664;23.372;2023-05-07T01:10:07;10.17;;;8.20;;
6135;SDS011;24008;42.664;23.372;2023-05-07T01:12:36;9.03;;;7.73;;
6135;SDS011;24008;42.664;23.372;2023-05-07T01:15:05;10.17;;;7.60;;
6135;SDS011;24008;42.664;23.372;2023-05-07T01:17:34;12.43;;;8.50;;
6135;SDS011;24008;42.664;23.372;2023-05-07T01:20:01;9.80;;;7.93;;
6135;SDS011;24008;42.664;23.372;2023-05-07T01:22:31;10.80;;;8.23;;
6135;SDS011;24008;42.664;23.372;2023-05-07T01:24:59;11.13;;;8.20;;
6135;SDS011;24008;42.664;23.372;2023-05-07T01:27:26;10.47;;;8.10;;
6135;SDS011;24008;42.664;23.372;2023-05-07T01:29:53;11.80;;;8.30;;
6135;SDS011;24008;42.664;23.372;2023-05-07T01:32:21;14.83;;;8.80;;
6135;SDS011;24008;42.664;23.372;2023-05-07T01:34:53;10.47;;;8.53;;
6135;SDS011;24008;42.664;23.372;2023-05-07T01:37:21;9.57;;;7.97;;
6135;SDS011;24008;42.664;23.372;2023-05-07T01:39:51;12.20;;;7.93;;
6135;SDS011;24008;42.664;23.372;2023-05-07T01:42:19;10.17;;;8.23;;
6135;SDS011;24008;42.664;23.372;2023-05-07T01:44:46;11.67;;;8.47;;
6135;SDS011;24008;42.664;23.372;2023-05-07T01:47:12;11.60;;;8.77;;
6135;SDS011;24008;42.664;23.372;2023-05-07T01:49:40;15.80;;;9.77;;
6135;SDS011;24008;42.664;23.372;2023-05-07T01:52:09;11.43;;;9.47;;
6135;SDS011;24008;42.664;23.372;2023-05-07T01:54:36;12.80;;;10.07;;
6135;SDS011;24008;42.664;23.372;2023-05-07T01:57:04;13.73;;;10.13;;
6135;SDS011;24008;42.664;23.372;2023-05-07T01:59:31;14.73;;;10.27;;
6135;SDS011;24008;42.664;23.372;2023-05-07T02:01:58;12.17;;;10.13;;
6135;SDS011;24008;42.664;23.372;2023-05-07T02:04:25;12.70;;;10.20;;
6135;SDS011;24008;42.664;23.372;2023-05-07T02:06:52;14.37;;;10.20;;
6135;SDS011;24008;42.664;23.372;2023-05-07T02:09:19;13.47;;;10.50;;
6135;SDS011;24008;42.664;23.372;2023-05-07T02:11:45;20.27;;;10.43;;
6135;SDS011;24008;42.664;23.372;2023-05-07T02:14:13;15.07;;;10.40;;
6135;SDS011;24008;42.664;23.372;2023-05-07T02:16:40;14.20;;;11.10;;
6135;SDS011;24008;42.664;23.372;2023-05-07T02:19:07;14.43;;;11.07;;
6135;SDS011;24008;42.664;23.372;2023-05-07T02:21:34;14.10;;;11.17;;
6135;SDS011;24008;42.664;23.372;2023-05-07T02:24:01;14.70;;;10.97;;
6135;SDS011;24008;42.664;23.372;2023-05-07T02:26:27;15.73;;;11.43;;
6135;SDS011;24008;42.664;23.372;2023-05-07T02:28:54;15.87;;;12.23;;
6135;SDS011;24008;42.664;23.372;2023-05-07T02:31:22;17.17;;;12.30;;
6135;SDS011;24008;42.664;23.372;2023-05-07T02:33:49;15.73;;;12.80;;
6135;SDS011;24008;42.664;23.372;2023-05-07T02:36:16;16.63;;;12.47;;
6135;SDS011;24008;42.664;23.372;2023-05-07T02:38:43;17.67;;;11.87;;
6135;SDS011;24008;42.664;23.372;2023-05-07T02:41:09;15.87;;;12.40;;
6135;SDS011;24008;42.664;23.372;2023-05-07T02:43:36;16.33;;;12.87;;
6135;SDS011;24008;42.664;23.372;2023-05-07T02:46:03;18.87;;;13.23;;
6135;SDS011;24008;42.664;23.372;2023-05-07T02:48:32;15.50;;;12.23;;
6135;SDS011;24008;42.664;23.372;2023-05-07T02:50:59;14.80;;;12.10;;
6135;SDS011;24008;42.664;23.372;2023-05-07T02:53:27;17.13;;;13.27;;
6135;SDS011;24008;42.664;23.372;2023-05-07T02:55:55;19.00;;;13.47;;
6135;SDS011;24008;42.664;23.372;2023-05-07T02:58:22;17.57;;;12.97;;
6135;SDS011;24008;42.664;23.372;2023-05-07T03:00:49;19.70;;;13.53;;
6135;SDS011;24008;42.664;23.372;2023-05-07T03:03:16;18.00;;;12.67;;
6135;SDS011;24008;42.664;23.372;2023-05-07T03:05:44;18.30;;;13.87;;
6135;SDS011;24008;42.664;23.372;2023-05-07T03:08:11;18.53;;;12.57;;
6135;SDS011;24008;42.664;23.372;2023-05-07T03:10:38;18.73;;;13.80;;
6135;SDS011;24008;42.664;23.372;2023-05-07T03:13:05;16.77;;;13.90;;
6135;SDS011;24008;42.664;23.372;2023-05-07T03:15:32;20.87;;;13.50;;
6135;SDS011;24008;42.664;23.372;2023-05-07T03:17:58;19.20;;;13.17;;
6135;SDS011;24008;42.664;23.372;2023-05-07T03:20:25;19.17;;;13.40;;
6135;SDS011;24008;42.664;23.372;2023-05-07T03:22:53;17.83;;;14.10;;
6135;SDS011;24008;42.664;23.372;2023-05-07T03:25:20;18.13;;;13.57;;
6135;SDS011;24008;42.664;23.372;2023-05-07T03:28:07;19.87;;;14.10;;
6135;SDS011;24008;42.664;23.372;2023-05-07T03:30:34;21.43;;;14.60;;
6135;SDS011;24008;42.664;23.372;2023-05-07T03:33:00;22.13;;;15.20;;
6135;SDS011;24008;42.664;23.372;2023-05-07T03:35:27;23.83;;;15.13;;
6135;SDS011;24008;42.664;23.372;2023-05-07T03:37:55;25.60;;;15.53;;
6135;SDS011;24008;42.664;23.372;2023-05-07T03:40:22;20.60;;;15.53;;
6135;SDS011;24008;42.664;23.372;2023-05-07T03:42:49;22.60;;;14.77;;
6135;SDS011;24008;42.664;23.372;2023-05-07T03:45:16;24.67;;;16.47;;
6135;SDS011;24008;42.664;23.372;2023-05-07T03:47:46;24.43;;;17.13;;
6135;SDS011;24008;42.664;23.372;2023-05-07T03:50:12;23.97;;;16.93;;
6135;SDS011;24008;42.664;23.372;2023-05-07T03:52:39;22.83;;;17.47;;
6135;SDS011;24008;42.664;23.372;2023-05-07T03:55:08;23.83;;;16.33;;
6135;SDS011;24008;42.664;23.372;2023-05-07T03:57:35;24.70;;;17.17;;
6135;SDS011;24008;42.664;23.372;2023-05-07T04:00:02;26.13;;;18.37;;
6135;SDS011;24008;42.664;23.372;2023-05-07T04:02:29;25.20;;;17.50;;
6135;SDS011;24008;42.664;23.372;2023-05-07T04:04:56;26.13;;;17.20;;
6135;SDS011;24008;42.664;23.372;2023-05-07T04:07:23;27.43;;;18.30;;
6135;SDS011;24008;42.664;23.372;2023-05-07T04:09:50;27.60;;;17.70;;
6135;SDS011;24008;42.664;23.372;2023-05-07T04:12:18;26.27;;;18.87;;
6135;SDS011;24008;42.664;23.372;2023-05-07T04:14:44;25.20;;;17.50;;
6135;SDS011;24008;42.664;23.372;2023-05-07T04:17:11;24.40;;;16.80;;
6135;SDS011;24008;42.664;23.372;2023-05-07T04:19:38;23.00;;;17.03;;
6135;SDS011;24008;42.664;23.372;2023-05-07T04:22:05;19.50;;;15.43;;
6135;SDS011;24008;42.664;23.372;2023-05-07T04:24:31;21.27;;;14.60;;
6135;SDS011;24008;42.664;23.372;2023-05-07T04:26:59;18.90;;;14.17;;
6135;SDS011;24008;42.664;23.372;2023-05-07T04:29:27;20.53;;;14.43;;
6135;SDS011;24008;42.664;23.372;2023-05-07T04:31:53;17.47;;;13.90;;
6135;SDS011;24008;42.664;23.372;2023-05-07T04:34:21;50.40;;;34.13;;
6135;SDS011;24008;42.664;23.372;2023-05-07T04:36:48;33.10;;;22.17;;
6135;SDS011;24008;42.664;23.372;2023-05-07T04:39:15;35.17;;;23.67;;
6135;SDS011;24008;42.664;23.372;2023-05-07T04:41:42;20.47;;;15.10;;
6135;SDS011;24008;42.664;23.372;2023-05-07T04:44:08;36.47;;;26.67;;
6135;SDS011;24008;42.664;23.372;2023-05-07T04:46:37;23.00;;;17.57;;
6135;SDS011;24008;42.664;23.372;2023-05-07T04:49:04;42.10;;;28.23;;
6135;SDS011;24008;42.664;23.372;2023-05-07T04:51:30;26.80;;;18.97;;
6135;SDS011;24008;42.664;23.372;2023-05-07T04:53:57;17.20;;;12.23;;
6135;SDS011;24008;42.664;23.372;2023-05-07T04:56:24;32.73;;;24.37;;
6135;SDS011;24008;42.664;23.372;2023-05-07T04:58:54;20.43;;;14.87;;
6135;SDS011;24008;42.664;23.372;2023-05-07T05:01:38;18.80;;;15.70;;
6135;SDS011;24008;42.664;23.372;2023-05-07T05:04:05;16.80;;;12.57;;
6135;SDS011;24008;42.664;23.372;2023-05-07T05:06:32;15.67;;;12.07;;
6135;SDS011;24008;42.664;23.372;2023-05-07T05:08:59;18.90;;;13.13;;
6135;SDS011;24008;42.664;23.372;2023-05-07T05:11:26;15.07;;;12.47;;
6135;SDS011;24008;42.664;23.372;2023-05-07T05:13:52;19.83;;;14.50;;
6135;SDS011;24008;42.664;23.372;2023-05-07T05:16:19;23.43;;;15.57;;
6135;SDS011;24008;42.664;23.372;2023-05-07T05:18:47;15.83;;;13.13;;
6135;SDS011;24008;42.664;23.372;2023-05-07T05:21:14;20.40;;;15.17;;
6135;SDS011;24008;42.664;23.372;2023-05-07T05:23:41;19.77;;;14.47;;
6135;SDS011;24008;42.664;23.372;2023-05-07T05:26:08;16.30;;;12.03;;
6135;SDS011;24008;42.664;23.372;2023-05-07T05:28:35;16.13;;;12.10;;
6135;SDS011;24008;42.664;23.372;2023-05-07T05:31:01;14.97;;;12.83;;
6135;SDS011;24008;42.664;23.372;2023-05-07T05:33:28;14.10;;;12.33;;
6135;SDS011;24008;42.664;23.372;2023-05-07T05:35:56;16.83;;;12.37;;
6135;SDS011;24008;42.664;23.372;2023-05-07T05:38:23;13.85;;;11.95;;
6135;SDS011;24008;42.664;23.372;2023-05-07T05:40:50;15.43;;;11.90;;
6135;SDS011;24008;42.664;23.372;2023-05-07T05:43:17;14.52;;;11.73;;
6135;SDS011;24008;42.664;23.372;2023-05-07T05:45:44;15.07;;;12.15;;
6135;SDS011;24008;42.664;23.372;2023-05-07T05:48:11;14.90;;;12.23;;
6135;SDS011;24008;42.664;23.372;2023-05-07T05:50:38;14.48;;;12.18;;
6135;SDS011;24008;42.664;23.372;2023-05-07T05:53:06;13.38;;;12.00;;
6135;SDS011;24008;42.664;23.372;2023-05-07T05:55:33;14.80;;;11.35;;
6135;SDS011;24008;42.664;23.372;2023-05-07T05:58:00;12.35;;;10.93;;
6135;SDS011;24008;42.664;23.372;2023-05-07T06:00:27;13.63;;;11.25;;
6135;SDS011;24008;42.664;23.372;2023-05-07T06:02:54;13.00;;;11.57;;
6135;SDS011;24008;42.664;23.372;2023-05-07T06:05:20;13.93;;;10.90;;
6135;SDS011;24008;42.664;23.372;2023-05-07T06:07:47;14.88;;;11.05;;
6135;SDS011;24008;42.664;23.372;2023-05-07T06:10:16;15.27;;;10.98;;
6135;SDS011;24008;42.664;23.372;2023-05-07T06:12:42;13.45;;;11.27;;
6135;SDS011;24008;42.664;23.372;2023-05-07T06:15:10;14.05;;;11.77;;
6135;SDS011;24008;42.664;23.372;2023-05-07T06:17:37;15.50;;;11.80;;
6135;SDS011;24008;42.664;23.372;2023-05-07T06:20:04;14.45;;;11.60;;
6135;SDS011;24008;42.664;23.372;2023-05-07T06:22:32;13.50;;;12.10;;
6135;SDS011;24008;42.664;23.372;2023-05-07T06:24:59;12.93;;;10.52;;
6135;SDS011;24008;42.664;23.372;2023-05-07T06:27:27;13.52;;;11.00;;
6135;SDS011;24008;42.664;23.372;2023-05-07T06:29:54;14.65;;;10.52;;
6135;SDS011;24008;42.664;23.372;2023-05-07T06:32:21;14.80;;;10.75;;
6135;SDS011;24008;42.664;23.372;2023-05-07T06:34:48;11.88;;;10.68;;
6135;SDS011;24008;42.664;23.372;2023-05-07T06:37:14;12.10;;;10.45;;
6135;SDS011;24008;42.664;23.372;2023-05-07T06:39:41;14.43;;;11.48;;
6135;SDS011;24008;42.664;23.372;2023-05-07T06:42:08;13.98;;;10.73;;
6135;SDS011;24008;42.664;23.372;2023-05-07T06:44:36;11.82;;;9.98;;
6135;SDS011;24008;42.664;23.372;2023-05-07T06:47:03;12.32;;;10.77;;
6135;SDS011;24008;42.664;23.372;2023-05-07T06:49:30;12.90;;;10.63;;
6135;SDS011;24008;42.664;23.372;2023-05-07T06:51:57;12.57;;;11.27;;
6135;SDS011;24008;42.664;23.372;2023-05-07T06:54:24;12.45;;;10.50;;
6135;SDS011;24008;42.664;23.372;2023-05-07T06:56:51;11.80;;;9.75;;
6135;SDS011;24008;42.664;23.372;2023-05-07T06:59:17;11.32;;;9.60;;
6135;SDS011;24008;42.664;23.372;2023-05-07T07:01:46;13.02;;;10.93;;
6135;SDS011;24008;42.664;23.372;2023-05-07T07:04:13;15.25;;;10.50;;
6135;SDS011;24008;42.664;23.372;2023-05-07T07:06:40;12.48;;;10.63;;
6135;SDS011;24008;42.664;23.372;2023-05-07T07:09:08;12.27;;;10.57;;
6135;SDS011;24008;42.664;23.372;2023-05-07T07:11:35;12.88;;;9.75;;
6135;SDS011;24008;42.664;23.372;2023-05-07T07:14:01;12.13;;;10.50;;
6135;SDS011;24008;42.664;23.372;2023-05-07T07:16:30;13.40;;;10.48;;
6135;SDS011;24008;42.664;23.372;2023-05-07T07:18:58;15.48;;;10.38;;
6135;SDS011;24008;42.664;23.372;2023-05-07T07:21:25;11.55;;;10.07;;
6135;SDS011;24008;42.664;23.372;2023-05-07T07:23:52;13.02;;;9.95;;
6135;SDS011;24008;42.664;23.372;2023-05-07T07:26:19;16.13;;;10.85;;
6135;SDS011;24008;42.664;23.372;2023-05-07T07:28:46;15.88;;;11.10;;
6135;SDS011;24008;42.664;23.372;2023-05-07T07:31:12;13.45;;;10.05;;
6135;SDS011;24008;42.664;23.372;2023-05-07T07:33:40;12.35;;;10.10;;
6135;SDS011;24008;42.664;23.372;2023-05-07T07:36:09;12.13;;;10.30;;
6135;SDS011;24008;42.664;23.372;2023-05-07T07:38:35;14.43;;;10.48;;
6135;SDS011;24008;42.664;23.372;2023-05-07T07:41:02;13.73;;;10.65;;
6135;SDS011;24008;42.664;23.372;2023-05-07T07:43:29;14.10;;;9.57;;
6135;SDS011;24008;42.664;23.372;2023-05-07T07:45:56;11.80;;;9.63;;
6135;SDS011;24008;42.664;23.372;2023-05-07T07:48:23;11.75;;;10.43;;
6135;SDS011;24008;42.664;23.372;2023-05-07T07:50:50;13.30;;;11.10;;
6135;SDS011;24008;42.664;23.372;2023-05-07T07:53:18;12.02;;;10.70;;
6135;SDS011;24008;42.664;23.372;2023-05-07T07:55:45;12.48;;;11.18;;
6135;SDS011;24008;42.664;23.372;2023-05-07T07:58:13;14.23;;;11.38;;
6135;SDS011;24008;42.664;23.372;2023-05-07T08:00:40;13.50;;;11.38;;
6135;SDS011;24008;42.664;23.372;2023-05-07T08:03:09;12.63;;;11.10;;
6135;SDS011;24008;42.664;23.372;2023-05-07T08:05:36;17.92;;;11.45;;
6135;SDS011;24008;42.664;23.372;2023-05-07T08:08:04;13.38;;;11.60;;
6135;SDS011;24008;42.664;23.372;2023-05-07T08:10:32;17.67;;;11.43;;
6135;SDS011;24008;42.664;23.372;2023-05-07T08:13:03;20.00;;;13.40;;
6135;SDS011;24008;42.664;23.372;2023-05-07T08:15:30;15.38;;;12.73;;
6135;SDS011;24008;42.664;23.372;2023-05-07T08:17:57;17.08;;;11.95;;
6135;SDS011;24008;42.664;23.372;2023-05-07T08:20:25;15.38;;;12.15;;
6135;SDS011;24008;42.664;23.372;2023-05-07T08:22:52;18.05;;;13.10;;
6135;SDS011;24008;42.664;23.372;2023-05-07T08:25:19;22.05;;;12.15;;
6135;SDS011;24008;42.664;23.372;2023-05-07T08:27:47;13.52;;;11.23;;
6135;SDS011;24008;42.664;23.372;2023-05-07T08:30:14;13.70;;;12.10;;
6135;SDS011;24008;42.664;23.372;2023-05-07T08:32:42;13.38;;;11.35;;
6135;SDS011;24008;42.664;23.372;2023-05-07T08:35:08;14.23;;;11.32;;
6135;SDS011;24008;42.664;23.372;2023-05-07T08:37:35;14.27;;;10.80;;
6135;SDS011;24008;42.664;23.372;2023-05-07T08:40:02;14.75;;;10.65;;
6135;SDS011;24008;42.664;23.372;2023-05-07T08:42:31;13.85;;;10.77;;
6135;SDS011;24008;42.664;23.372;2023-05-07T08:45:03;11.82;;;10.68;;
6135;SDS011;24008;42.664;23.372;2023-05-07T08:47:38;9.75;;;8.75;;
6135;SDS011;24008;42.664;23.372;2023-05-07T08:50:08;11.18;;;9.30;;
6135;SDS011;24008;42.664;23.372;2023-05-07T08:52:36;13.00;;;9.60;;
6135;SDS011;24008;42.664;23.372;2023-05-07T08:55:03;13.02;;;10.13;;
6135;SDS011;24008;42.664;23.372;2023-05-07T08:57:31;13.25;;;9.88;;
6135;SDS011;24008;42.664;23.372;2023-05-07T08:59:58;10.60;;;8.77;;
6135;SDS011;24008;42.664;23.372;2023-05-07T09:02:26;9.10;;;8.15;;
6135;SDS011;24008;42.664;23.372;2023-05-07T09:04:53;12.75;;;9.68;;
6135;SDS011;24008;42.664;23.372;2023-05-07T09:07:20;10.57;;;7.95;;
6135;SDS011;24008;42.664;23.372;2023-05-07T09:09:48;10.45;;;7.93;;
6135;SDS011;24008;42.664;23.372;2023-05-07T09:12:15;10.05;;;8.65;;
6135;SDS011;24008;42.664;23.372;2023-05-07T09:14:42;9.85;;;7.97;;
6135;SDS011;24008;42.664;23.372;2023-05-07T09:17:09;10.73;;;8.23;;
6135;SDS011;24008;42.664;23.372;2023-05-07T09:19:37;6.38;;;5.25;;
6135;SDS011;24008;42.664;23.372;2023-05-07T09:22:05;8.32;;;5.50;;
6135;SDS011;24008;42.664;23.372;2023-05-07T09:24:33;7.90;;;6.53;;
6135;SDS011;24008;42.664;23.372;2023-05-07T09:27:02;7.97;;;7.00;;
6135;SDS011;24008;42.664;23.372;2023-05-07T09:29:29;7.68;;;6.88;;
6135;SDS011;24008;42.664;23.372;2023-05-07T09:32:00;8.57;;;6.90;;
6135;SDS011;24008;42.664;23.372;2023-05-07T09:34:28;9.00;;;7.57;;
6135;SDS011;24008;42.664;23.372;2023-05-07T09:36:56;8.05;;;7.00;;
6135;SDS011;24008;42.664;23.372;2023-05-07T09:39:25;8.25;;;6.95;;
6135;SDS011;24008;42.664;23.372;2023-05-07T09:41:52;8.32;;;6.30;;
6135;SDS011;24008;42.664;23.372;2023-05-07T09:44:20;9.02;;;6.28;;
6135;SDS011;24008;42.664;23.372;2023-05-07T09:46:49;10.38;;;6.43;;
6135;SDS011;24008;42.664;23.372;2023-05-07T09:49:22;7.03;;;6.32;;
6135;SDS011;24008;42.664;23.372;2023-05-07T09:51:50;8.75;;;6.55;;
6135;SDS011;24008;42.664;23.372;2023-05-07T09:54:19;7.55;;;5.95;;
6135;SDS011;24008;42.664;23.372;2023-05-07T09:56:46;8.00;;;5.82;;
6135;SDS011;24008;42.664;23.372;2023-05-07T09:59:17;10.57;;;6.10;;
6135;SDS011;24008;42.664;23.372;2023-05-07T10:01:46;6.15;;;5.53;;
6135;SDS011;24008;42.664;23.372;2023-05-07T10:04:14;6.18;;;5.57;;
6135;SDS011;24008;42.664;23.372;2023-05-07T10:06:42;6.40;;;5.80;;
6135;SDS011;24008;42.664;23.372;2023-05-07T10:09:10;5.93;;;5.13;;
6135;SDS011;24008;42.664;23.372;2023-05-07T10:11:40;5.68;;;4.80;;
6135;SDS011;24008;42.664;23.372;2023-05-07T10:14:07;10.27;;;4.90;;
6135;SDS011;24008;42.664;23.372;2023-05-07T10:16:34;6.82;;;5.28;;
6135;SDS011;24008;42.664;23.372;2023-05-07T10:19:03;8.38;;;5.43;;
6135;SDS011;24008;42.664;23.372;2023-05-07T10:21:30;5.20;;;4.65;;
6135;SDS011;24008;42.664;23.372;2023-05-07T10:24:03;5.85;;;5.20;;
6135;SDS011;24008;42.664;23.372;2023-05-07T10:26:33;6.97;;;4.90;;
6135;SDS011;24008;42.664;23.372;2023-05-07T10:29:03;5.60;;;5.00;;
6135;SDS011;24008;42.664;23.372;2023-05-07T10:34:21;6.72;;;5.10;;
6135;SDS011;24008;42.664;23.372;2023-05-07T10:36:52;7.95;;;5.22;;
6135;SDS011;24008;42.664;23.372;2023-05-07T10:39:20;7.10;;;5.40;;
6135;SDS011;24008;42.664;23.372;2023-05-07T10:41:50;6.50;;;5.40;;
6135;SDS011;24008;42.664;23.372;2023-05-07T10:44:28;6.25;;;5.57;;
6135;SDS011;24008;42.664;23.372;2023-05-07T10:47:05;8.13;;;6.07;;
6135;SDS011;24008;42.664;23.372;2023-05-07T10:49:34;7.05;;;5.32;;
6135;SDS011;24008;42.664;23.372;2023-05-07T10:52:12;6.10;;;4.95;;
6135;SDS011;24008;42.664;23.372;2023-05-07T10:54:41;6.20;;;5.30;;
6135;SDS011;24008;42.664;23.372;2023-05-07T11:00:02;6.10;;;5.60;;
6135;SDS011;24008;42.664;23.372;2023-05-07T11:05:30;6.07;;;5.47;;
6135;SDS011;24008;42.664;23.372;2023-05-07T11:07:59;7.07;;;5.05;;
6135;SDS011;24008;42.664;23.372;2023-05-07T11:13:14;7.25;;;5.70;;
6135;SDS011;24008;42.664;23.372;2023-05-07T11:15:43;6.30;;;5.03;;
6135;SDS011;24008;42.664;23.372;2023-05-07T11:18:14;6.95;;;5.85;;
6135;SDS011;24008;42.664;23.372;2023-05-07T11:26:23;9.18;;;5.88;;
6135;SDS011;24008;42.664;23.372;2023-05-07T11:28:50;6.68;;;6.00;;
6135;SDS011;24008;42.664;23.372;2023-05-07T11:31:21;7.05;;;6.28;;
6135;SDS011;24008;42.664;23.372;2023-05-07T11:33:50;7.30;;;6.43;;
6135;SDS011;24008;42.664;23.372;2023-05-07T11:36:18;6.25;;;5.72;;
6135;SDS011;24008;42.664;23.372;2023-05-07T11:38:46;8.18;;;5.82;;
6135;SDS011;24008;42.664;23.372;2023-05-07T11:41:13;6.45;;;5.85;;
6135;SDS011;24008;42.664;23.372;2023-05-07T11:43:53;7.00;;;5.90;;
6135;SDS011;24008;42.664;23.372;2023-05-07T11:46:22;6.50;;;5.90;;
6135;SDS011;24008;42.664;23.372;2023-05-07T11:48:49;6.43;;;5.80;;
6135;SDS011;24008;42.664;23.372;2023-05-07T11:51:20;6.60;;;6.00;;
6135;SDS011;24008;42.664;23.372;2023-05-07T11:53:48;6.60;;;5.97;;
6135;SDS011;24008;42.664;23.372;2023-05-07T11:56:17;7.60;;;5.75;;
6135;SDS011;24008;42.664;23.372;2023-05-07T11:58:46;7.70;;;6.10;;
6135;SDS011;24008;42.664;23.372;2023-05-07T12:01:14;7.13;;;5.78;;
6135;SDS011;24008;42.664;23.372;2023-05-07T12:03:45;7.03;;;5.90;;
6135;SDS011;24008;42.664;23.372;2023-05-07T12:06:14;6.13;;;5.63;;
6135;SDS011;24008;42.664;23.372;2023-05-07T12:08:42;7.88;;;6.18;;
6135;SDS011;24008;42.664;23.372;2023-05-07T12:11:13;6.07;;;5.57;;
6135;SDS011;24008;42.664;23.372;2023-05-07T12:13:42;8.93;;;8.02;;
6135;SDS011;24008;42.664;23.372;2023-05-07T12:16:09;9.88;;;6.65;;
6135;SDS011;24008;42.664;23.372;2023-05-07T12:18:37;8.07;;;7.28;;
6135;SDS011;24008;42.664;23.372;2023-05-07T12:21:05;7.30;;;6.65;;
6135;SDS011;24008;42.664;23.372;2023-05-07T12:23:33;6.82;;;6.13;;
6135;SDS011;24008;42.664;23.372;2023-05-07T12:26:02;11.73;;;8.13;;
6135;SDS011;24008;42.664;23.372;2023-05-07T12:28:29;6.45;;;5.80;;
6135;SDS011;24008;42.664;23.372;2023-05-07T12:30:56;6.13;;;5.53;;
6135;SDS011;24008;42.664;23.372;2023-05-07T12:33:24;6.85;;;6.10;;
6135;SDS011;24008;42.664;23.372;2023-05-07T12:35:54;8.68;;;6.68;;
6135;SDS011;24008;42.664;23.372;2023-05-07T12:38:23;8.60;;;6.15;;
6135;SDS011;24008;42.664;23.372;2023-05-07T12:40:50;7.65;;;5.97;;
6135;SDS011;24008;42.664;23.372;2023-05-07T12:43:21;6.32;;;5.78;;
6135;SDS011;24008;42.664;23.372;2023-05-07T12:45:51;7.50;;;5.90;;
6135;SDS011;24008;42.664;23.372;2023-05-07T12:48:21;5.95;;;4.93;;
6135;SDS011;24008;42.664;23.372;2023-05-07T12:50:49;6.35;;;5.63;;
6135;SDS011;24008;42.664;23.372;2023-05-07T12:53:16;7.78;;;5.38;;
6135;SDS011;24008;42.664;23.372;2023-05-07T12:55:45;5.53;;;4.60;;
6135;SDS011;24008;42.664;23.372;2023-05-07T12:58:16;6.22;;;4.55;;
6135;SDS011;24008;42.664;23.372;2023-05-07T13:00:44;4.60;;;4.20;;
6135;SDS011;24008;42.664;23.372;2023-05-07T13:03:16;7.28;;;4.43;;
6135;SDS011;24008;42.664;23.372;2023-05-07T13:05:48;4.43;;;3.95;;
6135;SDS011;24008;42.664;23.372;2023-05-07T13:08:23;5.53;;;4.03;;
6135;SDS011;24008;42.664;23.372;2023-05-07T13:10:51;5.65;;;4.00;;
6135;SDS011;24008;42.664;23.372;2023-05-07T13:13:18;8.63;;;5.27;;
6135;SDS011;24008;42.664;23.372;2023-05-07T13:15:45;4.30;;;3.90;;
6135;SDS011;24008;42.664;23.372;2023-05-07T13:18:12;6.47;;;4.40;;
6135;SDS011;24008;42.664;23.372;2023-05-07T13:20:38;4.35;;;3.92;;
6135;SDS011;24008;42.664;23.372;2023-05-07T13:23:05;4.30;;;3.92;;
6135;SDS011;24008;42.664;23.372;2023-05-07T13:25:32;6.10;;;5.10;;
6135;SDS011;24008;42.664;23.372;2023-05-07T13:28:00;4.88;;;4.38;;
6135;SDS011;24008;42.664;23.372;2023-05-07T13:30:27;4.45;;;4.05;;
6135;SDS011;24008;42.664;23.372;2023-05-07T13:32:55;3.90;;;3.50;;
6135;SDS011;24008;42.664;23.372;2023-05-07T13:35:22;3.85;;;3.50;;
6135;SDS011;24008;42.664;23.372;2023-05-07T13:37:49;5.00;;;3.85;;
6135;SDS011;24008;42.664;23.372;2023-05-07T13:40:17;4.60;;;3.70;;
6135;SDS011;24008;42.664;23.372;2023-05-07T13:42:45;4.65;;;4.15;;
6135;SDS011;24008;42.664;23.372;2023-05-07T13:45:13;5.30;;;3.90;;
6135;SDS011;24008;42.664;23.372;2023-05-07T13:47:40;3.75;;;3.45;;
6135;SDS011;24008;42.664;23.372;2023-05-07T13:50:08;6.28;;;4.00;;
6135;SDS011;24008;42.664;23.372;2023-05-07T13:52:36;4.38;;;3.97;;
6135;SDS011;24008;42.664;23.372;2023-05-07T13:55:03;6.15;;;4.10;;
6135;SDS011;24008;42.664;23.372;2023-05-07T13:57:31;6.10;;;4.43;;
6135;SDS011;24008;42.664;23.372;2023-05-07T13:59:58;5.97;;;4.15;;
6135;SDS011;24008;42.664;23.372;2023-05-07T14:02:26;4.22;;;3.83;;
6135;SDS011;24008;42.664;23.372;2023-05-07T14:04:53;4.45;;;3.65;;
6135;SDS011;24008;42.664;23.372;2023-05-07T14:07:19;5.07;;;4.63;;
6135;SDS011;24008;42.664;23.372;2023-05-07T14:09:46;4.43;;;3.97;;
6135;SDS011;24008;42.664;23.372;2023-05-07T14:12:13;7.85;;;4.95;;
6135;SDS011;24008;42.664;23.372;2023-05-07T14:14:40;4.15;;;3.75;;
6135;SDS011;24008;42.664;23.372;2023-05-07T14:17:07;6.13;;;4.32;;
6135;SDS011;24008;42.664;23.372;2023-05-07T14:19:36;4.53;;;4.13;;
6135;SDS011;24008;42.664;23.372;2023-05-07T14:22:02;4.22;;;3.83;;
6135;SDS011;24008;42.664;23.372;2023-05-07T14:24:29;4.93;;;4.28;;
6135;SDS011;24008;42.664;23.372;2023-05-07T14:26:56;5.68;;;3.70;;
6135;SDS011;24008;42.664;23.372;2023-05-07T14:29:23;4.63;;;4.22;;
6135;SDS011;24008;42.664;23.372;2023-05-07T14:31:49;4.60;;;4.20;;
6135;SDS011;24008;42.664;23.372;2023-05-07T14:34:16;4.57;;;4.18;;
6135;SDS011;24008;42.664;23.372;2023-05-07T14:36:44;4.82;;;4.43;;
6135;SDS011;24008;42.664;23.372;2023-05-07T14:39:11;5.15;;;4.30;;
6135;SDS011;24008;42.664;23.372;2023-05-07T14:41:38;4.00;;;3.60;;
6135;SDS011;24008;42.664;23.372;2023-05-07T14:44:05;5.72;;;4.88;;
6135;SDS011;24008;42.664;23.372;2023-05-07T14:46:31;5.13;;;4.65;;
6135;SDS011;24008;42.664;23.372;2023-05-07T14:48:58;7.32;;;4.72;;
6135;SDS011;24008;42.664;23.372;2023-05-07T14:51:25;4.70;;;4.30;;
6135;SDS011;24008;42.664;23.372;2023-05-07T14:53:55;5.22;;;4.45;;